Time;durP1;ratioP1;P1;durP2;ratioP2;P2;SDS_P1;SDS_P2;PMS_P1;PMS_P2;Temp;Humidity;BMP_temperature;BMP_pressure;BME280_temperature;BME280_humidity;BME280_pressure;Samples;Min_cycle;Max_cycle;Signal;HPM_P1;HPM_P2
2022/11/13 00:00:55;;;;;;;14.73;11.55;;;7.40;99.90;;;;;;5021179;28;20040;-81
2022/11/13 00:03:21;;;;;;;17.33;13.52;;;6.60;99.90;;;;;;5017280;28;20078;-81
2022/11/13 00:05:47;;;;;;;15.35;12.60;;;6.60;99.90;;;;;;5031218;28;20056;-81
2022/11/13 00:08:13;;;;;;;22.70;16.75;;;6.60;99.90;;;;;;5014436;28;20033;-81
2022/11/13 00:10:39;;;;;;;20.40;15.63;;;6.60;99.90;;;;;;5027740;28;20132;-80
2022/11/13 00:13:05;;;;;;;32.40;23.52;;;6.70;99.90;;;;;;5027088;28;20127;-81
2022/11/13 00:15:30;;;;;;;21.42;15.40;;;7.30;99.90;;;;;;5001936;28;20186;-80
2022/11/13 00:18:00;;;;;;;16.88;14.25;;;6.70;99.90;;;;;;5024849;28;20126;-82
2022/11/13 00:20:26;;;;;;;16.85;13.85;;;6.80;99.90;;;;;;5024498;28;20694;-81
2022/11/13 00:22:52;;;;;;;16.73;13.30;;;6.80;99.90;;;;;;5001156;28;20040;-80
2022/11/13 00:25:17;;;;;;;26.08;19.45;;;6.80;99.90;;;;;;5009144;28;20033;-80
2022/11/13 00:27:43;;;;;;;24.25;17.98;;;6.80;99.90;;;;;;5011915;28;20091;-81
2022/11/13 00:30:09;;;;;;;32.70;22.48;;;6.80;99.90;;;;;;4999749;28;20033;-81
2022/11/13 00:32:36;;;;;;;29.52;21.65;;;6.70;99.90;;;;;;5009769;28;20100;-79
2022/11/13 00:35:03;;;;;;;28.15;21.95;;;6.20;99.90;;;;;;5010784;28;20408;-81
2022/11/13 00:37:29;;;;;;;29.33;22.20;;;6.60;99.90;;;;;;5009096;28;20409;-79
2022/11/13 00:39:55;;;;;;;31.48;21.63;;;7.50;99.90;;;;;;5014150;28;20051;-79
2022/11/13 00:42:20;;;;;;;31.27;21.85;;;6.70;99.90;;;;;;5014066;28;20044;-80
2022/11/13 00:44:46;;;;;;;33.08;23.30;;;6.60;99.90;;;;;;5010945;28;20041;-77
2022/11/13 00:47:11;;;;;;;34.40;24.92;;;6.90;99.90;;;;;;5010552;28;20055;-79
2022/11/13 00:49:37;;;;;;;25.17;19.27;;;6.60;99.90;;;;;;4994807;28;20072;-78
2022/11/13 00:52:03;;;;;;;24.75;18.42;;;6.60;99.90;;;;;;5000825;28;20496;-79
2022/11/13 00:54:29;;;;;;;36.20;26.00;;;6.70;99.90;;;;;;4985902;28;20421;-78
2022/11/13 00:56:54;;;;;;;25.55;21.20;;;6.70;99.90;;;;;;4996928;28;20112;-80
2022/11/13 00:59:20;;;;;;;42.30;27.88;;;7.50;99.90;;;;;;5030417;28;20055;-80
2022/11/13 01:01:45;;;;;;;27.80;20.08;;;6.80;99.90;;;;;;5001090;28;20033;-80
2022/11/13 01:04:11;;;;;;;31.40;23.58;;;6.80;99.90;;;;;;5029040;28;20040;-80
2022/11/13 01:06:37;;;;;;;38.85;26.88;;;6.80;99.90;;;;;;5003258;28;20136;-80
2022/11/13 01:09:03;;;;;;;29.45;21.65;;;6.80;99.90;;;;;;5016649;28;20032;-79
2022/11/13 01:11:30;;;;;;;21.52;16.60;;;6.80;99.90;;;;;;5001012;28;20044;-79
2022/11/13 01:13:56;;;;;;;29.98;22.42;;;6.90;99.90;;;;;;5022253;28;20131;-80
2022/11/13 01:16:24;;;;;;;30.10;22.48;;;7.00;99.90;;;;;;5016527;28;20037;-80
2022/11/13 01:18:52;;;;;;;36.08;24.95;;;6.80;99.90;;;;;;5033560;28;20067;-80
2022/11/13 01:21:20;;;;;;;27.27;21.55;;;6.80;99.90;;;;;;5016218;28;20037;-81
2022/11/13 01:23:46;;;;;;;26.80;21.48;;;6.80;99.90;;;;;;5019633;28;20041;-79
2022/11/13 01:26:19;;;;;;;31.95;24.27;;;6.80;99.90;;;;;;5036230;28;20033;-77
2022/11/13 01:28:46;;;;;;;30.05;21.20;;;6.80;99.90;;;;;;5032603;28;20047;-80
2022/11/13 01:31:15;;;;;;;26.92;20.25;;;6.80;99.90;;;;;;5002457;28;20080;-80
2022/11/13 01:33:42;;;;;;;29.92;21.70;;;6.70;99.90;;;;;;5018351;28;20041;-80
2022/11/13 01:36:14;;;;;;;32.88;23.58;;;7.00;99.90;;;;;;5018873;28;20091;-79
2022/11/13 01:38:40;;;;;;;30.45;22.83;;;6.80;99.90;;;;;;5024223;28;20102;-80
2022/11/13 01:41:06;;;;;;;28.50;21.63;;;6.70;99.90;;;;;;5022376;28;20072;-80
2022/11/13 01:43:35;;;;;;;29.77;23.10;;;6.70;99.90;;;;;;5038131;28;20044;-79
2022/11/13 01:46:25;;;;;;;27.25;19.58;;;7.50;99.90;;;;;;5021753;28;20543;-80
2022/11/13 01:49:00;;;;;;;26.05;19.95;;;6.70;99.90;;;;;;5039952;28;20100;-78
2022/11/13 01:52:03;;;;;;;27.70;20.35;;;6.70;99.90;;;;;;5024101;28;20064;-80
2022/11/13 01:54:32;;;;;;;23.90;18.75;;;6.80;99.90;;;;;;5024489;28;20925;-79
2022/11/13 01:56:58;;;;;;;22.00;16.85;;;6.90;99.90;;;;;;5025679;28;20044;-80
2022/11/13 01:59:39;;;;;;;24.20;16.88;;;6.80;99.90;;;;;;5029757;28;20063;-80
2022/11/13 02:02:05;;;;;;;24.35;18.38;;;6.90;99.90;;;;;;5036855;28;20100;-79
2022/11/13 02:04:31;;;;;;;31.25;23.33;;;7.00;99.90;;;;;;5030926;28;20079;-79
2022/11/13 02:07:13;;;;;;;20.42;16.10;;;7.00;99.90;;;;;;5003076;28;20045;-79
2022/11/13 02:09:44;;;;;;;23.08;18.35;;;7.00;99.90;;;;;;5014781;28;20041;-80
2022/11/13 02:12:15;;;;;;;22.95;16.92;;;7.00;99.90;;;;;;5015894;28;20487;-79
2022/11/13 02:14:53;;;;;;;30.23;21.08;;;6.90;99.90;;;;;;5030828;28;20104;-80
2022/11/13 02:17:26;;;;;;;22.95;17.15;;;7.00;99.90;;;;;;5013182;28;20051;-80
2022/11/13 02:19:58;;;;;;;31.10;22.08;;;6.90;99.90;;;;;;5032556;28;20040;-78
2022/11/13 02:22:50;;;;;;;24.17;17.42;;;6.90;99.90;;;;;;5023586;28;20049;-80
2022/11/13 02:25:16;;;;;;;29.20;18.90;;;6.90;99.90;;;;;;5013123;28;20037;-80
2022/11/13 02:27:45;;;;;;;25.67;19.13;;;6.90;99.90;;;;;;5017515;28;20037;-79
2022/11/13 02:30:34;;;;;;;24.95;17.92;;;6.90;99.90;;;;;;5017669;28;20060;-79
2022/11/13 02:33:01;;;;;;;19.83;15.52;;;6.90;99.90;;;;;;5012151;28;20037;-79
2022/11/13 02:35:34;;;;;;;21.27;14.48;;;6.90;99.90;;;;;;5010915;28;20068;-79
2022/11/13 02:38:02;;;;;;;21.48;17.25;;;6.90;99.90;;;;;;5011398;28;20041;-78
2022/11/13 02:40:29;;;;;;;19.40;13.98;;;6.90;99.90;;;;;;5026647;28;20044;-79
2022/11/13 02:42:55;;;;;;;21.80;16.33;;;7.00;99.90;;;;;;5029126;28;20412;-80
2022/11/13 02:45:21;;;;;;;33.75;22.10;;;6.90;99.90;;;;;;5007728;28;20033;-77
2022/11/13 02:47:47;;;;;;;23.52;18.52;;;6.90;99.90;;;;;;5011820;28;20076;-80
2022/11/13 02:50:13;;;;;;;28.30;20.63;;;7.00;99.90;;;;;;5012453;28;20101;-79
2022/11/13 02:52:39;;;;;;;26.02;20.80;;;7.30;99.90;;;;;;5014771;28;20040;-80
2022/11/13 02:55:05;;;;;;;23.45;18.50;;;7.00;99.90;;;;;;5002926;28;20044;-80
2022/11/13 02:57:31;;;;;;;25.88;18.45;;;7.00;99.90;;;;;;5003999;28;20436;-80
2022/11/13 02:59:56;;;;;;;33.15;24.27;;;7.00;99.90;;;;;;4992791;28;20325;-81
2022/11/13 03:02:22;;;;;;;21.33;16.48;;;7.10;99.90;;;;;;4999596;28;20044;-79
2022/11/13 03:04:48;;;;;;;32.38;22.40;;;7.10;99.90;;;;;;5014282;28;20660;-79
2022/11/13 03:07:14;;;;;;;22.73;17.80;;;7.10;99.90;;;;;;5024646;28;20120;-80
2022/11/13 03:09:40;;;;;;;33.85;22.35;;;7.00;99.90;;;;;;5024295;28;20043;-80
2022/11/13 03:12:08;;;;;;;25.67;16.58;;;7.10;99.90;;;;;;5006403;28;20036;-81
2022/11/13 03:14:33;;;;;;;28.63;20.77;;;7.10;99.90;;;;;;5000659;28;20068;-79
2022/11/13 03:16:59;;;;;;;30.30;21.95;;;7.00;99.90;;;;;;4999813;28;20049;-80
2022/11/13 03:19:25;;;;;;;21.65;17.38;;;7.00;99.90;;;;;;5017439;28;20055;-80
2022/11/13 03:21:51;;;;;;;30.35;22.75;;;7.20;99.90;;;;;;5020059;28;20040;-80
2022/11/13 03:24:16;;;;;;;25.92;19.77;;;7.80;99.90;;;;;;5000506;28;20317;-80
2022/11/13 03:26:42;;;;;;;24.95;17.40;;;7.00;99.90;;;;;;4991197;28;20045;-80
2022/11/13 03:29:08;;;;;;;30.08;22.55;;;7.00;99.90;;;;;;4987841;28;20175;-80
2022/11/13 03:31:33;;;;;;;25.48;18.38;;;7.00;99.90;;;;;;5013707;28;20433;-80
2022/11/13 03:33:59;;;;;;;24.58;19.33;;;7.00;99.90;;;;;;4980500;28;20401;-80
2022/11/13 03:36:25;;;;;;;30.73;22.50;;;7.10;99.90;;;;;;5025532;28;20034;-79
2022/11/13 03:38:51;;;;;;;33.20;21.23;;;7.10;99.90;;;;;;5030010;28;20126;-78
2022/11/13 03:41:17;;;;;;;26.45;20.17;;;7.10;99.90;;;;;;5011973;28;20048;-81
2022/11/13 03:43:42;;;;;;;30.35;22.50;;;7.10;99.90;;;;;;5011068;28;20503;-78
2022/11/13 03:46:08;;;;;;;25.63;18.48;;;7.30;99.90;;;;;;4999597;28;20044;-80
2022/11/13 03:48:34;;;;;;;31.30;23.05;;;7.10;99.90;;;;;;5013103;28;20037;-79
2022/11/13 03:51:00;;;;;;;26.02;19.83;;;7.60;99.90;;;;;;5032184;28;20149;-80
2022/11/13 03:53:26;;;;;;;26.27;18.88;;;7.50;99.90;;;;;;5017226;28;20033;-80
2022/11/13 03:55:52;;;;;;;37.17;24.65;;;7.70;99.90;;;;;;5032863;28;20128;-80
2022/11/13 03:58:18;;;;;;;33.08;24.67;;;7.50;99.90;;;;;;5001064;28;20040;-80
2022/11/13 04:00:45;;;;;;;26.02;19.95;;;7.10;99.90;;;;;;4998920;28;20162;-80
2022/11/13 04:03:10;;;;;;;30.52;22.33;;;7.10;99.90;;;;;;4997599;28;20041;-79
2022/11/13 04:05:37;;;;;;;28.58;21.40;;;7.10;99.90;;;;;;5028625;28;20075;-80
2022/11/13 04:08:02;;;;;;;34.42;24.67;;;7.10;99.90;;;;;;4994015;28;20060;-80
2022/11/13 04:10:29;;;;;;;32.05;21.92;;;7.10;99.90;;;;;;5001396;28;20052;-80
2022/11/13 04:12:54;;;;;;;30.00;21.27;;;7.10;99.90;;;;;;5029580;28;20047;-80
2022/11/13 04:15:20;;;;;;;29.95;24.40;;;7.00;99.90;;;;;;4986806;28;20032;-78
2022/11/13 04:17:46;;;;;;;31.55;24.77;;;7.10;99.90;;;;;;5006361;28;20693;-80
2022/11/13 04:20:12;;;;;;;31.90;23.27;;;7.00;99.90;;;;;;5017675;28;20037;-80
2022/11/13 04:22:38;;;;;;;30.00;22.88;;;7.00;99.90;;;;;;5028091;28;20071;-80
2022/11/13 04:25:05;;;;;;;29.77;20.95;;;7.00;99.90;;;;;;5018571;28;21883;-79
2022/11/13 04:27:31;;;;;;;31.40;22.60;;;7.00;99.90;;;;;;5020063;28;20040;-80
2022/11/13 04:29:56;;;;;;;30.80;23.35;;;7.00;99.90;;;;;;4998848;28;20044;-79
2022/11/13 04:32:22;;;;;;;29.27;22.42;;;7.10;99.90;;;;;;5031445;28;20124;-81
2022/11/13 04:34:48;;;;;;;29.77;23.50;;;7.10;99.90;;;;;;5028889;28;20068;-80
2022/11/13 04:37:14;;;;;;;29.75;22.05;;;7.10;99.90;;;;;;5035687;28;20417;-81
2022/11/13 04:39:39;;;;;;;24.30;20.30;;;7.80;99.90;;;;;;5033719;28;20045;-80
2022/11/13 04:44:49;;;;;;;32.47;22.73;;;7.10;99.90;;;;;;5010903;28;20071;-78
2022/11/13 04:47:15;;;;;;;31.73;23.75;;;7.20;99.90;;;;;;4966310;28;20056;-80
2022/11/13 04:49:41;;;;;;;30.75;24.17;;;7.20;99.90;;;;;;4991514;28;20136;-81
2022/11/13 04:52:06;;;;;;;31.15;23.77;;;7.20;99.90;;;;;;5016222;28;21026;-81
2022/11/13 04:54:32;;;;;;;35.90;24.70;;;7.80;99.90;;;;;;5012038;28;20151;-78
2022/11/13 04:56:57;;;;;;;33.83;23.02;;;7.20;99.90;;;;;;4996982;28;20040;-80
2022/11/13 04:59:23;;;;;;;30.35;22.83;;;7.20;99.90;;;;;;4984558;28;20049;-80
2022/11/13 05:01:49;;;;;;;32.10;23.30;;;7.30;99.90;;;;;;5018112;28;20219;-80
2022/11/13 05:04:15;;;;;;;28.48;21.60;;;7.20;99.90;;;;;;5019377;28;20040;-80
2022/11/13 05:06:41;;;;;;;37.90;25.30;;;7.20;99.90;;;;;;5013978;28;20047;-80
2022/11/13 05:09:07;;;;;;;28.75;21.20;;;7.30;99.90;;;;;;5001181;28;20041;-80
2022/11/13 05:11:33;;;;;;;28.70;21.33;;;7.20;99.90;;;;;;5032168;28;20029;-78
2022/11/13 05:13:58;;;;;;;33.67;24.80;;;7.20;99.90;;;;;;5016463;28;20047;-80
2022/11/13 05:16:24;;;;;;;29.33;23.02;;;7.80;99.90;;;;;;4997828;28;20040;-81
2022/11/13 05:18:50;;;;;;;25.35;17.77;;;7.20;99.90;;;;;;5020140;28;20060;-80
2022/11/13 05:21:15;;;;;;;33.30;23.48;;;7.20;99.90;;;;;;5015076;28;20070;-80
2022/11/13 05:23:41;;;;;;;30.92;23.95;;;8.10;99.90;;;;;;5005896;28;20122;-80
2022/11/13 05:26:12;;;;;;;29.42;23.95;;;7.10;99.90;;;;;;5016453;28;20719;-81
2022/11/13 05:28:38;;;;;;;30.73;23.27;;;7.20;99.90;;;;;;5033675;28;20052;-79
2022/11/13 05:31:09;;;;;;;35.47;24.67;;;7.80;99.90;;;;;;5000221;28;20037;-80
2022/11/13 05:33:36;;;;;;;32.35;22.50;;;7.10;99.90;;;;;;5014922;28;20036;-80
2022/11/13 05:36:07;;;;;;;30.55;23.58;;;7.10;99.90;;;;;;5019678;28;20041;-81
2022/11/13 05:38:33;;;;;;;28.08;20.83;;;7.10;99.90;;;;;;5036879;28;20036;-80
2022/11/13 05:41:08;;;;;;;32.25;23.77;;;8.00;99.90;;;;;;5034121;28;20033;-80
2022/11/13 05:43:36;;;;;;;32.28;23.60;;;7.00;99.90;;;;;;5029023;28;20037;-80
2022/11/13 05:46:02;;;;;;;24.73;19.05;;;7.00;99.90;;;;;;5012957;28;20052;-79
2022/11/13 05:48:28;;;;;;;25.85;20.42;;;7.80;99.90;;;;;;5031515;28;20090;-78
2022/11/13 05:50:59;;;;;;;28.90;22.38;;;7.00;99.90;;;;;;5024024;28;20029;-80
2022/11/13 05:53:25;;;;;;;26.95;20.92;;;7.10;99.90;;;;;;5035542;28;20041;-80
2022/11/13 05:55:50;;;;;;;31.10;23.00;;;7.10;99.90;;;;;;4994609;28;20099;-80
2022/11/13 05:58:16;;;;;;;25.67;20.98;;;7.10;99.90;;;;;;4971238;28;20117;-80
2022/11/13 06:00:42;;;;;;;34.38;23.20;;;7.00;99.90;;;;;;5037928;28;20037;-81
2022/11/13 06:03:07;;;;;;;28.25;20.48;;;7.00;99.90;;;;;;5011329;28;20045;-80
2022/11/13 06:05:36;;;;;;;36.42;25.08;;;6.90;99.90;;;;;;4984879;28;20100;-80
2022/11/13 06:08:02;;;;;;;32.50;23.83;;;6.90;99.90;;;;;;4989993;28;20044;-79
2022/11/13 06:10:27;;;;;;;26.20;19.98;;;6.90;99.90;;;;;;5005196;28;20104;-80
2022/11/13 06:12:54;;;;;;;28.17;21.23;;;7.80;99.90;;;;;;5017459;28;20060;-79
2022/11/13 06:15:19;;;;;;;38.45;23.88;;;6.80;99.90;;;;;;5025381;28;20071;-78
2022/11/13 06:17:45;;;;;;;29.50;21.83;;;6.70;99.90;;;;;;5042384;28;20505;-80
2022/11/13 06:20:11;;;;;;;34.33;24.02;;;6.70;99.90;;;;;;5026510;28;20045;-80
2022/11/13 06:22:37;;;;;;;21.38;16.08;;;7.00;99.90;;;;;;4997418;28;20056;-80
2022/11/13 06:25:03;;;;;;;30.67;21.58;;;6.70;99.90;;;;;;5018012;28;20055;-80
2022/11/13 06:27:28;;;;;;;25.17;18.83;;;6.60;99.90;;;;;;5005151;28;20098;-80
2022/11/13 06:29:54;;;;;;;22.15;18.23;;;6.70;99.90;;;;;;5018625;28;20037;-79
2022/11/13 06:32:19;;;;;;;26.65;18.52;;;6.60;99.90;;;;;;4994545;28;20040;-80
2022/11/13 06:34:45;;;;;;;33.20;22.23;;;6.60;99.90;;;;;;5013581;28;20559;-79
2022/11/13 06:37:11;;;;;;;22.75;16.27;;;6.60;99.90;;;;;;5028380;28;20045;-80
2022/11/13 06:39:36;;;;;;;23.92;18.45;;;6.60;99.90;;;;;;5016650;28;20079;-80
2022/11/13 06:42:02;;;;;;;22.02;17.48;;;7.50;99.90;;;;;;5016445;28;20055;-77
2022/11/13 06:44:28;;;;;;;31.98;20.83;;;6.50;99.90;;;;;;5030156;28;20040;-79
2022/11/13 06:46:53;;;;;;;20.98;15.82;;;6.90;99.90;;;;;;5015874;28;20048;-79
2022/11/13 06:49:19;;;;;;;21.08;17.20;;;6.50;99.90;;;;;;5023490;28;20037;-78
2022/11/13 06:51:45;;;;;;;28.38;19.35;;;6.50;99.90;;;;;;5022939;28;20045;-79
2022/11/13 06:54:10;;;;;;;26.25;18.70;;;6.70;99.90;;;;;;5006040;28;20084;-79
2022/11/13 06:56:42;;;;;;;31.25;20.63;;;6.50;99.90;;;;;;5040576;28;20055;-79
2022/11/13 06:59:08;;;;;;;23.58;18.25;;;6.60;99.90;;;;;;5033982;28;20059;-80
2022/11/13 07:01:34;;;;;;;24.85;17.08;;;6.50;99.90;;;;;;5023448;28;20044;-78
2022/11/13 07:03:59;;;;;;;22.85;17.20;;;6.50;99.90;;;;;;5031886;28;20033;-81
2022/11/13 07:06:25;;;;;;;28.30;18.13;;;6.50;99.90;;;;;;4999718;28;20063;-79
2022/11/13 07:08:51;;;;;;;31.73;21.70;;;6.60;99.90;;;;;;5046600;28;20045;-80
2022/11/13 07:11:20;;;;;;;26.58;20.42;;;6.50;99.90;;;;;;5013738;28;20131;-80
2022/11/13 07:13:46;;;;;;;21.10;16.65;;;6.90;99.90;;;;;;5029448;28;20037;-80
2022/11/13 07:16:13;;;;;;;27.17;19.48;;;6.50;99.90;;;;;;5014944;28;20063;-81
2022/11/13 07:18:39;;;;;;;26.50;20.35;;;6.50;99.90;;;;;;5030885;28;20053;-80
2022/11/13 07:21:07;;;;;;;28.52;20.38;;;6.80;99.90;;;;;;5026685;28;20040;-80
2022/11/13 07:23:35;;;;;;;27.10;19.73;;;6.50;99.90;;;;;;5018564;28;20037;-79
2022/11/13 07:26:02;;;;;;;25.55;19.00;;;6.50;99.90;;;;;;5017564;28;20105;-79
2022/11/13 07:28:29;;;;;;;27.02;20.40;;;6.60;99.90;;;;;;5032552;28;20041;-80
2022/11/13 07:30:58;;;;;;;26.13;20.10;;;6.60;99.90;;;;;;4997645;28;20044;-80
2022/11/13 07:33:24;;;;;;;24.52;18.30;;;6.60;99.90;;;;;;5031443;28;20033;-79
2022/11/13 07:35:53;;;;;;;25.33;18.92;;;6.60;99.90;;;;;;5032620;28;20455;-80
2022/11/13 07:38:19;;;;;;;24.25;18.42;;;6.60;99.90;;;;;;5033328;28;20033;-81
2022/11/13 07:40:44;;;;;;;24.15;18.95;;;7.10;99.90;;;;;;5005106;28;20109;-80
2022/11/13 07:43:10;;;;;;;24.25;19.42;;;6.70;99.90;;;;;;5020845;28;20041;-79
2022/11/13 07:45:36;;;;;;;23.77;18.35;;;6.80;99.90;;;;;;5021919;28;20212;-80
2022/11/13 07:48:03;;;;;;;25.95;19.23;;;6.80;99.90;;;;;;4999733;28;20049;-80
2022/11/13 07:50:31;;;;;;;25.55;18.25;;;6.80;99.90;;;;;;5017298;28;20041;-80
2022/11/13 07:52:58;;;;;;;27.15;18.88;;;6.90;99.90;;;;;;5037250;28;20092;-80
2022/11/13 07:55:25;;;;;;;24.52;19.00;;;7.50;99.90;;;;;;5020186;28;20032;-80
2022/11/13 07:57:54;;;;;;;24.67;19.58;;;7.00;99.90;;;;;;5037460;28;20125;-80
2022/11/13 08:00:19;;;;;;;21.58;17.95;;;7.10;99.90;;;;;;5037701;28;20033;-80
2022/11/13 08:02:46;;;;;;;27.88;19.25;;;7.10;99.90;;;;;;5019044;28;20047;-79
2022/11/13 08:05:13;;;;;;;24.30;18.63;;;7.20;99.90;;;;;;5033245;28;20063;-78
2022/11/13 08:07:39;;;;;;;25.33;17.52;;;7.20;99.90;;;;;;5003249;28;20049;-79
2022/11/13 08:10:05;;;;;;;22.45;17.50;;;8.10;99.90;;;;;;5004047;28;20103;-79
2022/11/13 08:12:31;;;;;;;26.95;18.23;;;7.40;99.90;;;;;;5021899;28;20033;-78
2022/11/13 08:14:56;;;;;;;25.25;16.10;;;7.50;99.90;;;;;;5023791;28;20067;-79
2022/11/13 08:17:22;;;;;;;23.30;18.20;;;7.90;99.90;;;;;;5020889;28;20131;-80
2022/11/13 08:19:47;;;;;;;22.05;16.67;;;7.60;99.90;;;;;;5023371;28;20041;-79
2022/11/13 08:22:13;;;;;;;23.15;17.15;;;7.70;99.90;;;;;;5016645;28;20040;-79
2022/11/13 08:24:39;;;;;;;24.30;17.52;;;7.70;99.90;;;;;;5020752;28;20051;-79
2022/11/13 08:27:05;;;;;;;19.88;15.95;;;7.80;99.90;;;;;;5004457;28;20040;-78
2022/11/13 08:29:31;;;;;;;23.92;17.02;;;7.90;99.90;;;;;;5035941;28;20048;-80
2022/11/13 08:31:57;;;;;;;22.10;15.77;;;8.00;99.90;;;;;;5006735;28;20037;-79
2022/11/13 08:34:22;;;;;;;19.15;15.43;;;8.10;99.90;;;;;;5032923;28;20041;-79
2022/11/13 08:36:48;;;;;;;19.67;15.98;;;8.20;99.90;;;;;;5001184;28;20041;-80
2022/11/13 08:39:14;;;;;;;19.50;15.90;;;8.30;99.90;;;;;;5035555;28;20052;-80
2022/11/13 08:41:40;;;;;;;20.92;15.85;;;8.30;99.90;;;;;;5012555;28;20525;-80
2022/11/13 08:44:05;;;;;;;22.67;15.27;;;8.40;99.90;;;;;;5002149;28;20115;-81
2022/11/13 08:46:31;;;;;;;22.45;16.90;;;9.00;99.90;;;;;;5033455;28;20096;-80
2022/11/13 08:48:57;;;;;;;22.65;16.17;;;8.60;99.90;;;;;;4991312;28;20542;-81
2022/11/13 08:51:25;;;;;;;17.65;14.82;;;8.60;99.90;;;;;;5040400;28;20110;-80
2022/11/13 08:53:51;;;;;;;17.52;13.85;;;8.70;99.90;;;;;;5054111;28;20040;-80
2022/11/13 08:56:16;;;;;;;20.48;14.40;;;8.80;99.90;;;;;;5019114;28;20435;-81
2022/11/13 08:58:42;;;;;;;20.48;14.07;;;8.90;99.90;;;;;;5001045;28;20079;-79
2022/11/13 09:01:08;;;;;;;18.13;14.25;;;8.90;99.90;;;;;;5018493;28;20456;-78
2022/11/13 09:03:35;;;;;;;19.17;15.32;;;9.00;99.90;;;;;;5033833;28;20041;-80
2022/11/13 09:06:08;;;;;;;17.17;14.40;;;9.00;99.90;;;;;;5020772;28;20041;-78
2022/11/13 09:08:34;;;;;;;19.52;15.05;;;9.20;99.90;;;;;;5020886;28;20062;-78
2022/11/13 09:11:04;;;;;;;20.48;14.50;;;9.30;99.90;;;;;;5031624;28;20085;-80
2022/11/13 09:13:33;;;;;;;18.15;13.80;;;9.40;99.90;;;;;;5024849;28;20029;-78
2022/11/13 09:16:00;;;;;;;17.55;12.63;;;9.50;99.90;;;;;;5025754;28;20048;-79
2022/11/13 09:18:27;;;;;;;15.80;13.45;;;9.60;99.90;;;;;;5042708;28;20037;-79
2022/11/13 09:20:53;;;;;;;16.17;11.82;;;9.70;99.90;;;;;;5028230;28;20065;-78
2022/11/13 09:23:19;;;;;;;17.30;11.80;;;9.90;99.90;;;;;;5041505;28;20061;-81
2022/11/13 09:25:45;;;;;;;14.48;11.30;;;10.10;99.90;;;;;;5039646;28;20052;-80
2022/11/13 09:28:11;;;;;;;14.60;11.25;;;10.20;99.90;;;;;;5015479;28;20036;-80
2022/11/13 09:30:38;;;;;;;14.50;11.20;;;10.30;99.90;;;;;;5045038;28;20035;-80
2022/11/13 09:33:05;;;;;;;14.18;11.27;;;10.40;99.90;;;;;;5024012;28;20043;-82
2022/11/13 09:35:34;;;;;;;14.27;11.70;;;10.70;99.90;;;;;;5027386;28;20085;-81
2022/11/13 09:38:06;;;;;;;13.85;11.05;;;10.70;99.90;;;;;;5029629;28;20041;-81
2022/11/13 09:41:00;;;;;;;17.33;11.15;;;10.80;99.90;;;;;;5031902;28;20040;-80
2022/11/13 09:43:52;;;;;;;14.05;10.60;;;10.90;99.90;;;;;;5049376;28;20040;-81
2022/11/13 09:46:54;;;;;;;13.50;11.13;;;11.00;99.90;;;;;;5045118;28;20055;-78
2022/11/13 09:49:34;;;;;;;13.00;10.68;;;11.20;99.90;;;;;;5028900;28;20124;-78
2022/11/13 09:52:22;;;;;;;13.93;10.10;;;11.30;99.90;;;;;;5051036;28;20037;-80
2022/11/13 09:54:48;;;;;;;19.70;11.20;;;11.50;99.90;;;;;;5042141;28;20227;-77
2022/11/13 09:57:29;;;;;;;11.27;9.27;;;11.60;99.90;;;;;;5042908;28;20041;-80
2022/11/13 10:00:03;;;;;;;10.90;8.63;;;11.70;99.90;;;;;;5026305;28;20169;-79
2022/11/13 10:02:56;;;;;;;12.32;9.88;;;11.80;99.90;;;;;;5030757;28;20041;-78
2022/11/13 10:05:47;;;;;;;13.15;9.00;;;12.00;99.90;;;;;;5027216;28;20123;-80
2022/11/13 10:08:17;;;;;;;10.68;8.90;;;12.10;99.90;;;;;;5044078;28;20052;-77
2022/11/13 10:10:46;;;;;;;12.77;8.82;;;12.30;99.90;;;;;;5047724;28;20041;-79
2022/11/13 10:13:27;;;;;;;10.95;8.50;;;12.30;99.90;;;;;;5018592;28;20056;-78
2022/11/13 10:15:58;;;;;;;9.73;8.15;;;12.40;99.90;;;;;;5033675;28;20067;-80
2022/11/13 10:18:34;;;;;;;10.05;8.98;;;12.30;99.90;;;;;;5016166;28;20037;-81
2022/11/13 10:21:15;;;;;;;10.93;8.70;;;12.50;99.90;;;;;;5016589;28;20037;-81
2022/11/13 10:23:46;;;;;;;11.88;8.90;;;12.50;99.90;;;;;;5049334;28;20044;-79
2022/11/13 10:26:24;;;;;;;10.38;9.00;;;12.60;99.90;;;;;;5017659;28;20037;-79
2022/11/13 10:28:59;;;;;;;10.32;9.10;;;12.60;99.90;;;;;;5032427;28;20029;-80
2022/11/13 10:31:25;;;;;;;13.15;8.27;;;12.90;99.90;;;;;;5009095;28;20067;-79
2022/11/13 10:33:53;;;;;;;9.68;8.40;;;12.90;99.90;;;;;;5032469;28;20045;-80
2022/11/13 10:36:41;;;;;;;10.25;8.50;;;13.10;99.90;;;;;;5021618;28;20048;-80
2022/11/13 10:39:08;;;;;;;9.45;8.35;;;13.10;99.90;;;;;;5015997;28;20045;-79
2022/11/13 10:41:51;;;;;;;10.65;8.45;;;13.20;99.90;;;;;;4989342;28;20037;-79
2022/11/13 10:44:28;;;;;;;7.88;7.05;;;13.20;99.90;;;;;;5037521;28;20124;-79
2022/11/13 10:47:19;;;;;;;10.82;7.93;;;13.20;99.90;;;;;;5017266;28;20188;-79
2022/11/13 10:49:44;;;;;;;9.30;7.55;;;13.30;99.90;;;;;;5030458;28;20045;-79
2022/11/13 10:52:26;;;;;;;8.77;6.78;;;13.40;99.90;;;;;;4987443;28;20033;-79
2022/11/13 10:55:30;;;;;;;8.15;6.72;;;13.50;99.90;;;;;;5034446;28;20044;-78
2022/11/13 10:57:59;;;;;;;10.43;7.20;;;13.50;99.90;;;;;;5035210;28;20037;-79
2022/11/13 11:00:31;;;;;;;9.98;7.32;;;13.50;99.90;;;;;;5022171;28;20051;-78
2022/11/13 11:02:57;;;;;;;7.75;6.43;;;13.60;99.90;;;;;;5037766;28;20043;-78
2022/11/13 11:05:24;;;;;;;8.45;6.25;;;13.70;99.90;;;;;;5045044;28;20053;-77
2022/11/13 11:07:55;;;;;;;10.05;7.20;;;13.70;99.90;;;;;;5012951;28;20097;-78
2022/11/13 11:10:33;;;;;;;7.70;6.18;;;13.60;99.90;;;;;;5049675;28;20255;-79
2022/11/13 11:13:05;;;;;;;8.65;6.85;;;13.60;99.90;;;;;;5064344;28;20037;-79
2022/11/13 11:15:49;;;;;;;8.82;6.70;;;13.50;99.90;;;;;;5045768;28;20045;-78
2022/11/13 11:18:21;;;;;;;8.38;6.05;;;13.60;99.90;;;;;;5029074;28;20045;-79
2022/11/13 11:20:57;;;;;;;7.22;6.25;;;13.70;99.90;;;;;;5060143;28;20041;-79
2022/11/13 11:23:37;;;;;;;9.02;6.35;;;13.90;99.90;;;;;;5032737;28;20040;-78
2022/11/13 11:26:12;;;;;;;7.90;6.22;;;13.90;99.90;;;;;;5050966;28;20052;-79
2022/11/13 11:28:50;;;;;;;7.93;5.50;;;13.90;99.90;;;;;;5049379;28;20270;-77
2022/11/13 11:31:29;;;;;;;8.57;5.53;;;13.90;99.90;;;;;;5044716;28;20041;-78
2022/11/13 11:34:08;;;;;;;7.85;6.00;;;14.00;99.90;;;;;;5030693;28;20095;-78
2022/11/13 11:36:48;;;;;;;7.00;5.35;;;14.00;99.90;;;;;;5028182;28;20047;-79
2022/11/13 11:39:47;;;;;;;8.32;5.65;;;13.90;99.90;;;;;;5033185;28;20115;-77
2022/11/13 11:42:40;;;;;;;7.63;5.85;;;13.80;99.90;;;;;;5029197;28;20037;-79
2022/11/13 11:45:15;;;;;;;8.77;5.70;;;13.70;99.90;;;;;;5032926;28;20097;-80
2022/11/13 11:47:41;;;;;;;8.05;5.25;;;13.60;99.90;;;;;;5032862;28;20041;-79
2022/11/13 11:50:14;;;;;;;12.43;8.43;;;13.50;99.90;;;;;;5045957;28;20067;-78
2022/11/13 11:53:02;;;;;;;13.43;8.52;;;13.40;99.90;;;;;;5025326;28;20071;-79
2022/11/13 11:55:34;;;;;;;7.32;5.63;;;13.40;99.90;;;;;;5046529;28;20245;-79
2022/11/13 11:58:18;;;;;;;8.23;6.75;;;13.30;99.90;;;;;;5028546;28;20029;-79
2022/11/13 12:00:51;;;;;;;7.22;5.50;;;13.40;99.90;;;;;;5048523;28;20025;-78
2022/11/13 12:03:54;;;;;;;9.05;6.20;;;13.40;99.90;;;;;;5030886;28;20184;-80
2022/11/13 12:06:44;;;;;;;9.95;7.97;;;13.50;99.90;;;;;;5017967;28;20044;-80
2022/11/13 12:09:16;;;;;;;7.55;6.50;;;13.50;99.90;;;;;;5035219;28;20029;-80
2022/11/13 12:12:24;;;;;;;8.73;6.55;;;13.60;99.90;;;;;;5048048;28;20051;-80
2022/11/13 12:15:18;;;;;;;9.32;7.30;;;13.60;99.90;;;;;;5048550;28;20136;-81
2022/11/13 12:17:57;;;;;;;8.68;7.20;;;13.70;99.90;;;;;;5043715;28;20078;-79
2022/11/13 12:20:57;;;;;;;7.97;6.78;;;13.70;99.90;;;;;;5050808;28;20037;-80
2022/11/13 12:23:32;;;;;;;8.50;6.32;;;13.90;99.90;;;;;;5065809;28;20061;-81
2022/11/13 12:26:23;;;;;;;7.55;6.70;;;14.00;99.90;;;;;;5051702;28;20493;-83
2022/11/13 12:29:13;;;;;;;8.20;6.80;;;14.10;99.90;;;;;;5040465;28;20049;-80
2022/11/13 12:31:56;;;;;;;9.18;7.15;;;14.20;99.90;;;;;;5052669;28;20075;-80
2022/11/13 12:34:39;;;;;;;8.65;7.18;;;14.20;99.90;;;;;;5035274;28;20045;-82
2022/11/13 12:37:11;;;;;;;7.68;6.65;;;14.30;99.90;;;;;;5017243;28;20044;-79
2022/11/13 12:40:06;;;;;;;9.50;7.07;;;14.30;99.90;;;;;;5034505;28;20048;-81
2022/11/13 12:42:48;;;;;;;8.32;7.40;;;14.20;99.90;;;;;;5033587;28;20110;-79
2022/11/13 12:45:38;;;;;;;10.70;6.82;;;14.10;99.90;;;;;;5016789;28;20465;-79
2022/11/13 12:48:30;;;;;;;11.73;7.40;;;14.10;99.90;;;;;;5035713;28;20510;-80
2022/11/13 12:51:08;;;;;;;11.82;8.05;;;14.00;99.90;;;;;;5042828;28;20060;-79
2022/11/13 12:53:50;;;;;;;8.32;7.07;;;14.00;99.90;;;;;;5035082;28;20073;-81
2022/11/13 12:56:26;;;;;;;8.73;6.80;;;13.90;99.90;;;;;;5042291;28;20069;-79